sensor_id;sensor_type;location;lat;lon;timestamp;P1;durP1;ratioP1;P2;durP2;ratioP2
53108;SDS011;39007;53.090;6.074;2022-10-17T00:02:18;14.85;;;3.47;;
53108;SDS011;39007;53.090;6.074;2022-10-17T00:04:44;12.10;;;3.03;;
53108;SDS011;39007;53.090;6.074;2022-10-17T00:07:11;10.98;;;3.20;;
53108;SDS011;39007;53.090;6.074;2022-10-17T00:09:37;14.73;;;3.45;;
53108;SDS011;39007;53.090;6.074;2022-10-17T00:12:03;14.27;;;3.22;;
53108;SDS011;39007;53.090;6.074;2022-10-17T00:14:29;15.63;;;3.60;;
53108;SDS011;39007;53.090;6.074;2022-10-17T00:16:55;10.43;;;3.08;;
53108;SDS011;39007;53.090;6.074;2022-10-17T00:19:21;13.20;;;3.42;;
53108;SDS011;39007;53.090;6.074;2022-10-17T00:21:48;19.08;;;3.70;;
53108;SDS011;39007;53.090;6.074;2022-10-17T00:24:14;14.63;;;3.50;;
53108;SDS011;39007;53.090;6.074;2022-10-17T00:26:40;11.70;;;3.33;;
53108;SDS011;39007;53.090;6.074;2022-10-17T00:29:06;10.82;;;3.38;;
53108;SDS011;39007;53.090;6.074;2022-10-17T00:31:32;13.10;;;3.10;;
53108;SDS011;39007;53.090;6.074;2022-10-17T00:33:59;15.68;;;3.50;;
53108;SDS011;39007;53.090;6.074;2022-10-17T00:36:25;12.93;;;3.50;;
53108;SDS011;39007;53.090;6.074;2022-10-17T00:38:53;12.07;;;3.65;;
53108;SDS011;39007;53.090;6.074;2022-10-17T00:41:20;14.82;;;3.70;;
53108;SDS011;39007;53.090;6.074;2022-10-17T00:46:37;15.52;;;3.60;;
53108;SDS011;39007;53.090;6.074;2022-10-17T00:49:05;16.40;;;3.10;;
53108;SDS011;39007;53.090;6.074;2022-10-17T00:51:51;11.43;;;3.33;;
53108;SDS011;39007;53.090;6.074;2022-10-17T00:56:44;12.48;;;3.53;;
53108;SDS011;39007;53.090;6.074;2022-10-17T00:59:11;11.35;;;3.60;;
53108;SDS011;39007;53.090;6.074;2022-10-17T01:01:41;10.65;;;3.70;;
53108;SDS011;39007;53.090;6.074;2022-10-17T01:04:11;14.95;;;3.83;;
53108;SDS011;39007;53.090;6.074;2022-10-17T01:06:37;15.48;;;3.70;;
53108;SDS011;39007;53.090;6.074;2022-10-17T01:09:03;12.02;;;3.92;;
53108;SDS011;39007;53.090;6.074;2022-10-17T01:11:32;11.27;;;3.95;;
53108;SDS011;39007;53.090;6.074;2022-10-17T01:14:05;12.43;;;3.83;;
53108;SDS011;39007;53.090;6.074;2022-10-17T01:21:46;12.50;;;4.20;;
53108;SDS011;39007;53.090;6.074;2022-10-17T01:32:10;11.70;;;3.85;;
53108;SDS011;39007;53.090;6.074;2022-10-17T01:37:05;11.05;;;4.18;;
53108;SDS011;39007;53.090;6.074;2022-10-17T01:44:52;11.52;;;4.40;;
53108;SDS011;39007;53.090;6.074;2022-10-17T01:47:20;12.57;;;4.30;;
53108;SDS011;39007;53.090;6.074;2022-10-17T01:49:48;12.13;;;4.68;;
53108;SDS011;39007;53.090;6.074;2022-10-17T01:52:19;11.95;;;4.20;;
53108;SDS011;39007;53.090;6.074;2022-10-17T01:54:57;12.57;;;4.22;;
53108;SDS011;39007;53.090;6.074;2022-10-17T01:57:30;10.68;;;4.32;;
53108;SDS011;39007;53.090;6.074;2022-10-17T01:59:58;10.55;;;4.10;;
53108;SDS011;39007;53.090;6.074;2022-10-17T02:02:25;10.32;;;4.38;;
53108;SDS011;39007;53.090;6.074;2022-10-17T02:04:54;11.52;;;4.38;;
53108;SDS011;39007;53.090;6.074;2022-10-17T02:07:21;9.55;;;4.00;;
53108;SDS011;39007;53.090;6.074;2022-10-17T02:09:48;11.90;;;4.57;;
53108;SDS011;39007;53.090;6.074;2022-10-17T02:25:28;13.15;;;5.10;;
53108;SDS011;39007;53.090;6.074;2022-10-17T02:28:04;13.27;;;5.13;;
53108;SDS011;39007;53.090;6.074;2022-10-17T02:30:34;12.88;;;5.25;;
53108;SDS011;39007;53.090;6.074;2022-10-17T02:35:32;13.02;;;5.35;;
53108;SDS011;39007;53.090;6.074;2022-10-17T02:38:00;11.48;;;5.25;;
53108;SDS011;39007;53.090;6.074;2022-10-17T02:40:27;13.02;;;5.72;;
53108;SDS011;39007;53.090;6.074;2022-10-17T02:42:55;13.02;;;6.15;;
53108;SDS011;39007;53.090;6.074;2022-10-17T02:45:26;15.73;;;6.10;;
53108;SDS011;39007;53.090;6.074;2022-10-17T02:47:58;14.05;;;6.13;;
53108;SDS011;39007;53.090;6.074;2022-10-17T02:50:52;14.50;;;6.43;;
53108;SDS011;39007;53.090;6.074;2022-10-17T02:55:47;12.32;;;7.13;;
53108;SDS011;39007;53.090;6.074;2022-10-17T02:58:16;13.07;;;6.75;;
53108;SDS011;39007;53.090;6.074;2022-10-17T03:00:43;12.65;;;6.82;;
53108;SDS011;39007;53.090;6.074;2022-10-17T03:03:19;17.40;;;7.13;;
53108;SDS011;39007;53.090;6.074;2022-10-17T03:05:46;12.27;;;7.20;;
53108;SDS011;39007;53.090;6.074;2022-10-17T03:08:12;15.38;;;7.57;;
53108;SDS011;39007;53.090;6.074;2022-10-17T03:10:38;14.77;;;7.63;;
53108;SDS011;39007;53.090;6.074;2022-10-17T03:13:04;13.48;;;8.20;;
53108;SDS011;39007;53.090;6.074;2022-10-17T03:15:30;12.45;;;8.63;;
53108;SDS011;39007;53.090;6.074;2022-10-17T03:17:56;13.10;;;8.38;;
53108;SDS011;39007;53.090;6.074;2022-10-17T03:20:22;13.82;;;8.00;;
53108;SDS011;39007;53.090;6.074;2022-10-17T03:22:48;12.98;;;8.80;;
53108;SDS011;39007;53.090;6.074;2022-10-17T03:25:15;14.63;;;8.38;;
53108;SDS011;39007;53.090;6.074;2022-10-17T03:27:41;16.25;;;9.40;;
53108;SDS011;39007;53.090;6.074;2022-10-17T03:30:07;18.25;;;9.25;;
53108;SDS011;39007;53.090;6.074;2022-10-17T03:32:33;15.18;;;9.85;;
53108;SDS011;39007;53.090;6.074;2022-10-17T03:35:00;14.40;;;10.15;;
53108;SDS011;39007;53.090;6.074;2022-10-17T03:37:26;17.17;;;11.15;;
53108;SDS011;39007;53.090;6.074;2022-10-17T03:39:52;15.63;;;10.98;;
53108;SDS011;39007;53.090;6.074;2022-10-17T03:42:18;18.15;;;11.13;;
53108;SDS011;39007;53.090;6.074;2022-10-17T03:44:44;12.65;;;11.25;;
53108;SDS011;39007;53.090;6.074;2022-10-17T03:47:10;15.88;;;11.20;;
53108;SDS011;39007;53.090;6.074;2022-10-17T03:49:36;16.27;;;12.45;;
53108;SDS011;39007;53.090;6.074;2022-10-17T03:52:02;14.52;;;12.15;;
53108;SDS011;39007;53.090;6.074;2022-10-17T03:54:28;19.17;;;12.88;;
53108;SDS011;39007;53.090;6.074;2022-10-17T03:56:54;17.10;;;13.38;;
53108;SDS011;39007;53.090;6.074;2022-10-17T03:59:20;15.57;;;13.15;;
53108;SDS011;39007;53.090;6.074;2022-10-17T04:01:47;16.45;;;13.65;;
53108;SDS011;39007;53.090;6.074;2022-10-17T04:04:13;18.95;;;13.85;;
53108;SDS011;39007;53.090;6.074;2022-10-17T04:06:39;23.63;;;13.52;;
53108;SDS011;39007;53.090;6.074;2022-10-17T04:09:06;21.75;;;14.32;;
53108;SDS011;39007;53.090;6.074;2022-10-17T04:11:32;17.65;;;13.98;;
53108;SDS011;39007;53.090;6.074;2022-10-17T04:13:58;17.80;;;14.25;;
53108;SDS011;39007;53.090;6.074;2022-10-17T04:16:24;19.05;;;15.00;;
53108;SDS011;39007;53.090;6.074;2022-10-17T04:18:51;19.75;;;14.93;;
53108;SDS011;39007;53.090;6.074;2022-10-17T04:21:19;19.52;;;14.98;;
53108;SDS011;39007;53.090;6.074;2022-10-17T04:23:45;18.90;;;14.85;;
53108;SDS011;39007;53.090;6.074;2022-10-17T04:26:11;20.77;;;14.57;;
53108;SDS011;39007;53.090;6.074;2022-10-17T04:28:38;17.30;;;14.93;;
53108;SDS011;39007;53.090;6.074;2022-10-17T04:31:05;19.13;;;14.48;;
53108;SDS011;39007;53.090;6.074;2022-10-17T04:33:32;23.58;;;15.35;;
53108;SDS011;39007;53.090;6.074;2022-10-17T04:36:02;21.80;;;15.23;;
53108;SDS011;39007;53.090;6.074;2022-10-17T04:38:28;20.40;;;15.15;;
53108;SDS011;39007;53.090;6.074;2022-10-17T04:40:58;18.50;;;14.43;;
53108;SDS011;39007;53.090;6.074;2022-10-17T04:43:28;22.38;;;15.70;;
53108;SDS011;39007;53.090;6.074;2022-10-17T04:45:56;18.35;;;15.25;;
53108;SDS011;39007;53.090;6.074;2022-10-17T04:48:22;17.67;;;14.85;;
53108;SDS011;39007;53.090;6.074;2022-10-17T04:50:55;22.83;;;15.60;;
53108;SDS011;39007;53.090;6.074;2022-10-17T04:53:21;20.10;;;15.68;;
53108;SDS011;39007;53.090;6.074;2022-10-17T04:55:47;19.17;;;15.43;;
53108;SDS011;39007;53.090;6.074;2022-10-17T04:58:14;17.98;;;15.65;;
53108;SDS011;39007;53.090;6.074;2022-10-17T05:00:40;19.65;;;16.40;;
53108;SDS011;39007;53.090;6.074;2022-10-17T05:03:06;20.73;;;15.48;;
53108;SDS011;39007;53.090;6.074;2022-10-17T05:05:32;20.35;;;15.65;;
53108;SDS011;39007;53.090;6.074;2022-10-17T05:07:58;17.98;;;14.68;;
53108;SDS011;39007;53.090;6.074;2022-10-17T05:10:24;18.75;;;15.57;;
53108;SDS011;39007;53.090;6.074;2022-10-17T05:12:50;17.20;;;15.00;;
53108;SDS011;39007;53.090;6.074;2022-10-17T05:15:17;19.13;;;14.82;;
53108;SDS011;39007;53.090;6.074;2022-10-17T05:17:43;20.55;;;15.23;;
53108;SDS011;39007;53.090;6.074;2022-10-17T05:20:09;22.90;;;14.90;;
53108;SDS011;39007;53.090;6.074;2022-10-17T05:22:38;17.55;;;15.20;;
53108;SDS011;39007;53.090;6.074;2022-10-17T05:25:05;19.23;;;15.05;;
53108;SDS011;39007;53.090;6.074;2022-10-17T05:27:31;17.02;;;15.05;;
53108;SDS011;39007;53.090;6.074;2022-10-17T05:29:57;20.48;;;14.63;;
53108;SDS011;39007;53.090;6.074;2022-10-17T05:32:23;19.80;;;15.18;;
53108;SDS011;39007;53.090;6.074;2022-10-17T05:34:50;19.15;;;15.35;;
53108;SDS011;39007;53.090;6.074;2022-10-17T05:37:16;20.95;;;15.82;;
53108;SDS011;39007;53.090;6.074;2022-10-17T05:39:42;21.48;;;15.55;;
53108;SDS011;39007;53.090;6.074;2022-10-17T05:42:08;22.55;;;15.48;;
53108;SDS011;39007;53.090;6.074;2022-10-17T05:44:34;20.63;;;15.23;;
53108;SDS011;39007;53.090;6.074;2022-10-17T05:47:00;21.63;;;15.93;;
53108;SDS011;39007;53.090;6.074;2022-10-17T05:49:27;21.15;;;15.90;;
53108;SDS011;39007;53.090;6.074;2022-10-17T05:51:53;21.95;;;14.77;;
53108;SDS011;39007;53.090;6.074;2022-10-17T05:54:19;22.13;;;16.10;;
53108;SDS011;39007;53.090;6.074;2022-10-17T05:56:49;19.60;;;16.42;;
53108;SDS011;39007;53.090;6.074;2022-10-17T05:59:16;19.83;;;14.75;;
53108;SDS011;39007;53.090;6.074;2022-10-17T06:01:42;20.92;;;15.63;;
53108;SDS011;39007;53.090;6.074;2022-10-17T06:04:08;19.38;;;13.73;;
53108;SDS011;39007;53.090;6.074;2022-10-17T06:06:37;17.35;;;14.43;;
53108;SDS011;39007;53.090;6.074;2022-10-17T06:09:04;21.15;;;13.88;;
53108;SDS011;39007;53.090;6.074;2022-10-17T06:11:30;20.15;;;14.00;;
53108;SDS011;39007;53.090;6.074;2022-10-17T06:13:56;21.80;;;14.40;;
53108;SDS011;39007;53.090;6.074;2022-10-17T06:16:22;19.90;;;13.43;;
53108;SDS011;39007;53.090;6.074;2022-10-17T06:18:49;16.52;;;13.32;;
53108;SDS011;39007;53.090;6.074;2022-10-17T06:21:16;16.75;;;13.27;;
53108;SDS011;39007;53.090;6.074;2022-10-17T06:23:43;18.85;;;12.63;;
53108;SDS011;39007;53.090;6.074;2022-10-17T06:26:09;18.40;;;12.48;;
53108;SDS011;39007;53.090;6.074;2022-10-17T06:28:35;17.70;;;12.75;;
53108;SDS011;39007;53.090;6.074;2022-10-17T06:31:09;16.70;;;11.95;;
53108;SDS011;39007;53.090;6.074;2022-10-17T06:33:35;20.80;;;11.65;;
53108;SDS011;39007;53.090;6.074;2022-10-17T06:36:02;14.25;;;11.25;;
53108;SDS011;39007;53.090;6.074;2022-10-17T06:38:28;14.70;;;11.50;;
53108;SDS011;39007;53.090;6.074;2022-10-17T06:41:01;15.23;;;11.20;;
53108;SDS011;39007;53.090;6.074;2022-10-17T06:43:27;14.15;;;10.75;;
53108;SDS011;39007;53.090;6.074;2022-10-17T06:45:53;13.52;;;10.23;;
53108;SDS011;39007;53.090;6.074;2022-10-17T06:48:19;15.98;;;10.32;;
53108;SDS011;39007;53.090;6.074;2022-10-17T06:50:45;15.07;;;9.95;;
53108;SDS011;39007;53.090;6.074;2022-10-17T06:53:11;16.00;;;9.95;;
53108;SDS011;39007;53.090;6.074;2022-10-17T06:55:37;12.95;;;9.95;;
53108;SDS011;39007;53.090;6.074;2022-10-17T06:58:03;12.90;;;10.02;;
53108;SDS011;39007;53.090;6.074;2022-10-17T07:00:29;17.38;;;8.90;;
53108;SDS011;39007;53.090;6.074;2022-10-17T07:02:55;16.02;;;9.38;;
53108;SDS011;39007;53.090;6.074;2022-10-17T07:05:22;15.07;;;8.82;;
53108;SDS011;39007;53.090;6.074;2022-10-17T07:07:48;14.23;;;9.15;;
53108;SDS011;39007;53.090;6.074;2022-10-17T07:10:14;15.80;;;8.88;;
53108;SDS011;39007;53.090;6.074;2022-10-17T07:12:40;16.38;;;8.75;;
53108;SDS011;39007;53.090;6.074;2022-10-17T07:15:08;15.57;;;8.82;;
53108;SDS011;39007;53.090;6.074;2022-10-17T07:17:35;14.13;;;8.27;;
53108;SDS011;39007;53.090;6.074;2022-10-17T07:20:01;11.38;;;7.78;;
53108;SDS011;39007;53.090;6.074;2022-10-17T07:22:27;14.27;;;8.05;;
53108;SDS011;39007;53.090;6.074;2022-10-17T07:24:53;13.73;;;8.40;;
53108;SDS011;39007;53.090;6.074;2022-10-17T07:27:20;12.88;;;8.88;;
53108;SDS011;39007;53.090;6.074;2022-10-17T07:29:46;10.32;;;7.80;;
53108;SDS011;39007;53.090;6.074;2022-10-17T07:32:12;12.32;;;8.00;;
53108;SDS011;39007;53.090;6.074;2022-10-17T07:34:38;10.15;;;7.88;;
53108;SDS011;39007;53.090;6.074;2022-10-17T07:37:07;13.48;;;8.55;;
53108;SDS011;39007;53.090;6.074;2022-10-17T07:39:34;12.93;;;7.68;;
53108;SDS011;39007;53.090;6.074;2022-10-17T07:42:00;19.02;;;8.40;;
53108;SDS011;39007;53.090;6.074;2022-10-17T07:44:26;13.20;;;8.27;;
53108;SDS011;39007;53.090;6.074;2022-10-17T07:46:53;14.02;;;8.45;;
53108;SDS011;39007;53.090;6.074;2022-10-17T07:49:19;14.55;;;7.82;;
53108;SDS011;39007;53.090;6.074;2022-10-17T07:51:46;12.43;;;7.65;;
53108;SDS011;39007;53.090;6.074;2022-10-17T07:54:13;14.60;;;8.25;;
53108;SDS011;39007;53.090;6.074;2022-10-17T07:56:39;12.60;;;7.78;;
53108;SDS011;39007;53.090;6.074;2022-10-17T07:59:05;11.60;;;8.00;;
53108;SDS011;39007;53.090;6.074;2022-10-17T08:01:31;11.18;;;7.75;;
53108;SDS011;39007;53.090;6.074;2022-10-17T08:03:57;15.45;;;8.30;;
53108;SDS011;39007;53.090;6.074;2022-10-17T08:06:23;11.52;;;7.97;;
53108;SDS011;39007;53.090;6.074;2022-10-17T08:08:49;12.48;;;8.07;;
53108;SDS011;39007;53.090;6.074;2022-10-17T08:11:16;15.77;;;8.50;;
53108;SDS011;39007;53.090;6.074;2022-10-17T08:13:42;10.88;;;7.88;;
53108;SDS011;39007;53.090;6.074;2022-10-17T08:16:09;13.65;;;8.00;;
53108;SDS011;39007;53.090;6.074;2022-10-17T08:18:36;11.20;;;7.70;;
53108;SDS011;39007;53.090;6.074;2022-10-17T08:21:03;13.85;;;7.80;;
53108;SDS011;39007;53.090;6.074;2022-10-17T08:23:30;14.65;;;8.48;;
53108;SDS011;39007;53.090;6.074;2022-10-17T08:26:00;11.25;;;8.25;;
53108;SDS011;39007;53.090;6.074;2022-10-17T08:28:27;16.17;;;8.40;;
53108;SDS011;39007;53.090;6.074;2022-10-17T08:31:00;10.65;;;7.85;;
53108;SDS011;39007;53.090;6.074;2022-10-17T08:33:26;13.50;;;8.60;;
53108;SDS011;39007;53.090;6.074;2022-10-17T08:35:52;11.75;;;8.68;;
53108;SDS011;39007;53.090;6.074;2022-10-17T08:38:18;13.63;;;8.93;;
53108;SDS011;39007;53.090;6.074;2022-10-17T08:40:47;15.82;;;9.07;;
53108;SDS011;39007;53.090;6.074;2022-10-17T08:46:01;14.60;;;9.75;;
53108;SDS011;39007;53.090;6.074;2022-10-17T08:48:30;11.77;;;9.23;;
53108;SDS011;39007;53.090;6.074;2022-10-17T08:51:00;13.30;;;8.80;;
53108;SDS011;39007;53.090;6.074;2022-10-17T08:55:53;14.20;;;9.35;;
53108;SDS011;39007;53.090;6.074;2022-10-17T08:58:21;15.20;;;9.35;;
53108;SDS011;39007;53.090;6.074;2022-10-17T09:08:45;11.20;;;9.02;;
53108;SDS011;39007;53.090;6.074;2022-10-17T09:13:55;12.48;;;9.93;;
53108;SDS011;39007;53.090;6.074;2022-10-17T09:21:48;18.83;;;10.52;;
53108;SDS011;39007;53.090;6.074;2022-10-17T09:26:53;16.98;;;10.05;;
53108;SDS011;39007;53.090;6.074;2022-10-17T09:29:23;17.48;;;10.02;;
53108;SDS011;39007;53.090;6.074;2022-10-17T09:31:53;17.65;;;10.82;;
53108;SDS011;39007;53.090;6.074;2022-10-17T09:34:19;20.70;;;10.77;;
53108;SDS011;39007;53.090;6.074;2022-10-17T09:36:46;17.33;;;10.70;;
53108;SDS011;39007;53.090;6.074;2022-10-17T09:39:13;18.25;;;11.23;;
53108;SDS011;39007;53.090;6.074;2022-10-17T09:41:52;14.60;;;10.00;;
53108;SDS011;39007;53.090;6.074;2022-10-17T09:47:11;16.02;;;10.18;;
53108;SDS011;39007;53.090;6.074;2022-10-17T09:49:41;13.20;;;10.13;;
53108;SDS011;39007;53.090;6.074;2022-10-17T09:52:10;17.27;;;11.35;;
53108;SDS011;39007;53.090;6.074;2022-10-17T09:54:47;15.70;;;10.85;;
53108;SDS011;39007;53.090;6.074;2022-10-17T09:57:14;18.98;;;10.48;;
53108;SDS011;39007;53.090;6.074;2022-10-17T09:59:43;18.85;;;10.18;;
53108;SDS011;39007;53.090;6.074;2022-10-17T10:07:27;18.13;;;11.13;;
53108;SDS011;39007;53.090;6.074;2022-10-17T10:09:54;18.98;;;11.00;;
53108;SDS011;39007;53.090;6.074;2022-10-17T10:12:29;15.98;;;11.73;;
53108;SDS011;39007;53.090;6.074;2022-10-17T10:14:56;18.88;;;11.45;;
53108;SDS011;39007;53.090;6.074;2022-10-17T10:20:01;16.63;;;11.65;;
53108;SDS011;39007;53.090;6.074;2022-10-17T10:22:27;18.35;;;12.00;;
53108;SDS011;39007;53.090;6.074;2022-10-17T10:27:39;18.52;;;12.20;;
53108;SDS011;39007;53.090;6.074;2022-10-17T10:30:05;17.88;;;12.30;;
53108;SDS011;39007;53.090;6.074;2022-10-17T10:32:40;19.95;;;13.70;;
53108;SDS011;39007;53.090;6.074;2022-10-17T10:37:55;23.42;;;13.27;;
53108;SDS011;39007;53.090;6.074;2022-10-17T10:40:24;17.85;;;12.65;;
53108;SDS011;39007;53.090;6.074;2022-10-17T10:42:52;21.63;;;13.50;;
53108;SDS011;39007;53.090;6.074;2022-10-17T10:45:26;19.40;;;13.10;;
53108;SDS011;39007;53.090;6.074;2022-10-17T10:50:24;18.15;;;12.23;;
53108;SDS011;39007;53.090;6.074;2022-10-17T10:55:36;22.00;;;13.07;;
53108;SDS011;39007;53.090;6.074;2022-10-17T10:58:27;18.65;;;13.05;;
53108;SDS011;39007;53.090;6.074;2022-10-17T11:00:51;18.60;;;12.18;;
53108;SDS011;39007;53.090;6.074;2022-10-17T11:03:20;15.23;;;12.32;;
53108;SDS011;39007;53.090;6.074;2022-10-17T11:05:50;19.10;;;13.05;;
53108;SDS011;39007;53.090;6.074;2022-10-17T11:08:38;15.80;;;10.85;;
53108;SDS011;39007;53.090;6.074;2022-10-17T11:11:13;16.75;;;10.25;;
53108;SDS011;39007;53.090;6.074;2022-10-17T11:13:45;15.68;;;10.82;;
53108;SDS011;39007;53.090;6.074;2022-10-17T11:18:49;13.95;;;10.55;;
53108;SDS011;39007;53.090;6.074;2022-10-17T11:24:23;17.50;;;10.93;;
53108;SDS011;39007;53.090;6.074;2022-10-17T11:26:53;16.25;;;10.50;;
53108;SDS011;39007;53.090;6.074;2022-10-17T11:29:19;16.48;;;10.38;;
53108;SDS011;39007;53.090;6.074;2022-10-17T11:31:47;17.48;;;9.82;;
53108;SDS011;39007;53.090;6.074;2022-10-17T11:34:19;12.05;;;9.00;;
53108;SDS011;39007;53.090;6.074;2022-10-17T11:36:49;14.13;;;8.45;;
53108;SDS011;39007;53.090;6.074;2022-10-17T11:39:18;13.43;;;7.38;;
53108;SDS011;39007;53.090;6.074;2022-10-17T11:41:47;12.73;;;7.43;;
53108;SDS011;39007;53.090;6.074;2022-10-17T11:44:24;10.30;;;7.38;;
53108;SDS011;39007;53.090;6.074;2022-10-17T11:46:56;9.85;;;7.40;;
53108;SDS011;39007;53.090;6.074;2022-10-17T11:49:25;11.27;;;8.20;;
53108;SDS011;39007;53.090;6.074;2022-10-17T11:51:54;13.68;;;8.23;;
53108;SDS011;39007;53.090;6.074;2022-10-17T11:54:26;11.27;;;7.57;;
53108;SDS011;39007;53.090;6.074;2022-10-17T11:57:20;11.27;;;8.25;;
53108;SDS011;39007;53.090;6.074;2022-10-17T12:05:30;11.15;;;7.18;;
53108;SDS011;39007;53.090;6.074;2022-10-17T12:15:48;7.25;;;5.07;;
53108;SDS011;39007;53.090;6.074;2022-10-17T12:18:15;10.13;;;5.32;;
53108;SDS011;39007;53.090;6.074;2022-10-17T12:20:42;7.68;;;4.68;;
53108;SDS011;39007;53.090;6.074;2022-10-17T12:25:47;8.60;;;4.85;;
53108;SDS011;39007;53.090;6.074;2022-10-17T12:30:53;6.82;;;4.13;;
53108;SDS011;39007;53.090;6.074;2022-10-17T12:38:42;8.90;;;4.10;;
53108;SDS011;39007;53.090;6.074;2022-10-17T12:41:09;7.85;;;3.58;;
53108;SDS011;39007;53.090;6.074;2022-10-17T12:43:46;6.88;;;3.88;;
53108;SDS011;39007;53.090;6.074;2022-10-17T12:46:12;9.18;;;3.90;;
53108;SDS011;39007;53.090;6.074;2022-10-17T12:48:59;9.07;;;3.30;;
53108;SDS011;39007;53.090;6.074;2022-10-17T12:51:25;10.40;;;4.20;;
53108;SDS011;39007;53.090;6.074;2022-10-17T12:56:36;12.32;;;4.03;;
53108;SDS011;39007;53.090;6.074;2022-10-17T12:59:45;8.90;;;4.88;;
53108;SDS011;39007;53.090;6.074;2022-10-17T13:01:54;15.27;;;4.25;;
53108;SDS011;39007;53.090;6.074;2022-10-17T13:04:21;8.05;;;3.67;;
53108;SDS011;39007;53.090;6.074;2022-10-17T13:06:48;8.63;;;3.85;;
53108;SDS011;39007;53.090;6.074;2022-10-17T13:11:53;8.57;;;3.67;;
53108;SDS011;39007;53.090;6.074;2022-10-17T13:14:21;8.75;;;4.00;;
53108;SDS011;39007;53.090;6.074;2022-10-17T13:16:58;7.47;;;3.40;;
53108;SDS011;39007;53.090;6.074;2022-10-17T13:19:29;9.45;;;4.22;;
53108;SDS011;39007;53.090;6.074;2022-10-17T13:21:56;10.23;;;4.43;;
53108;SDS011;39007;53.090;6.074;2022-10-17T13:24:31;9.80;;;4.30;;
53108;SDS011;39007;53.090;6.074;2022-10-17T13:26:59;10.05;;;4.70;;
53108;SDS011;39007;53.090;6.074;2022-10-17T13:29:25;8.75;;;4.20;;
53108;SDS011;39007;53.090;6.074;2022-10-17T13:31:55;8.13;;;4.53;;
53108;SDS011;39007;53.090;6.074;2022-10-17T13:34:22;11.70;;;4.53;;
53108;SDS011;39007;53.090;6.074;2022-10-17T13:37:11;8.57;;;4.93;;
53108;SDS011;39007;53.090;6.074;2022-10-17T13:39:45;9.25;;;4.82;;
53108;SDS011;39007;53.090;6.074;2022-10-17T13:42:23;10.02;;;4.80;;
53108;SDS011;39007;53.090;6.074;2022-10-17T13:44:50;9.73;;;4.10;;
53108;SDS011;39007;53.090;6.074;2022-10-17T13:47:23;8.88;;;4.75;;
53108;SDS011;39007;53.090;6.074;2022-10-17T13:49:51;8.15;;;3.75;;
53108;SDS011;39007;53.090;6.074;2022-10-17T13:52:18;9.98;;;4.00;;
53108;SDS011;39007;53.090;6.074;2022-10-17T13:54:46;10.60;;;3.40;;
53108;SDS011;39007;53.090;6.074;2022-10-17T13:57:28;9.45;;;3.00;;
53108;SDS011;39007;53.090;6.074;2022-10-17T13:59:58;13.10;;;3.20;;
53108;SDS011;39007;53.090;6.074;2022-10-17T14:02:26;7.38;;;2.97;;
53108;SDS011;39007;53.090;6.074;2022-10-17T14:07:36;7.40;;;2.80;;
53108;SDS011;39007;53.090;6.074;2022-10-17T14:10:04;8.13;;;2.60;;
53108;SDS011;39007;53.090;6.074;2022-10-17T14:12:31;8.13;;;2.97;;
53108;SDS011;39007;53.090;6.074;2022-10-17T14:14:57;7.07;;;2.63;;
53108;SDS011;39007;53.090;6.074;2022-10-17T14:17:25;7.50;;;2.72;;
53108;SDS011;39007;53.090;6.074;2022-10-17T14:19:52;6.72;;;2.80;;
53108;SDS011;39007;53.090;6.074;2022-10-17T14:24:48;5.45;;;2.47;;
53108;SDS011;39007;53.090;6.074;2022-10-17T14:27:24;8.95;;;2.90;;
53108;SDS011;39007;53.090;6.074;2022-10-17T14:29:51;7.47;;;2.80;;
53108;SDS011;39007;53.090;6.074;2022-10-17T14:32:18;6.60;;;2.50;;
53108;SDS011;39007;53.090;6.074;2022-10-17T14:34:44;6.47;;;2.72;;
53108;SDS011;39007;53.090;6.074;2022-10-17T14:37:11;5.63;;;2.90;;
53108;SDS011;39007;53.090;6.074;2022-10-17T14:39:41;7.22;;;3.30;;
53108;SDS011;39007;53.090;6.074;2022-10-17T14:42:15;7.43;;;2.88;;
53108;SDS011;39007;53.090;6.074;2022-10-17T14:44:42;8.57;;;2.58;;
53108;SDS011;39007;53.090;6.074;2022-10-17T14:47:15;9.63;;;3.40;;
53108;SDS011;39007;53.090;6.074;2022-10-17T14:49:41;9.00;;;3.17;;
53108;SDS011;39007;53.090;6.074;2022-10-17T14:52:09;6.00;;;2.78;;
53108;SDS011;39007;53.090;6.074;2022-10-17T14:54:35;6.47;;;3.13;;
53108;SDS011;39007;53.090;6.074;2022-10-17T14:57:24;10.40;;;3.50;;
53108;SDS011;39007;53.090;6.074;2022-10-17T14:59:49;8.50;;;3.30;;
53108;SDS011;39007;53.090;6.074;2022-10-17T15:02:15;10.10;;;3.65;;
53108;SDS011;39007;53.090;6.074;2022-10-17T15:04:44;9.02;;;3.40;;
53108;SDS011;39007;53.090;6.074;2022-10-17T15:07:14;9.30;;;3.50;;
53108;SDS011;39007;53.090;6.074;2022-10-17T15:09:41;7.97;;;3.40;;
53108;SDS011;39007;53.090;6.074;2022-10-17T15:12:15;9.10;;;3.33;;
53108;SDS011;39007;53.090;6.074;2022-10-17T15:14:41;7.53;;;3.30;;
53108;SDS011;39007;53.090;6.074;2022-10-17T15:17:12;7.60;;;3.03;;
53108;SDS011;39007;53.090;6.074;2022-10-17T15:19:39;8.30;;;3.08;;
53108;SDS011;39007;53.090;6.074;2022-10-17T15:22:05;12.20;;;3.50;;
53108;SDS011;39007;53.090;6.074;2022-10-17T15:24:31;10.68;;;3.10;;
53108;SDS011;39007;53.090;6.074;2022-10-17T15:26:57;8.07;;;2.83;;
53108;SDS011;39007;53.090;6.074;2022-10-17T15:29:23;7.35;;;3.03;;
53108;SDS011;39007;53.090;6.074;2022-10-17T15:31:49;8.00;;;3.13;;
53108;SDS011;39007;53.090;6.074;2022-10-17T15:34:18;8.98;;;2.80;;
53108;SDS011;39007;53.090;6.074;2022-10-17T15:36:50;7.53;;;2.97;;
53108;SDS011;39007;53.090;6.074;2022-10-17T15:39:18;10.40;;;3.47;;
53108;SDS011;39007;53.090;6.074;2022-10-17T15:41:44;10.07;;;3.50;;
53108;SDS011;39007;53.090;6.074;2022-10-17T15:44:12;6.80;;;3.10;;
53108;SDS011;39007;53.090;6.074;2022-10-17T15:46:38;9.07;;;3.40;;
53108;SDS011;39007;53.090;6.074;2022-10-17T15:49:07;9.20;;;3.47;;
53108;SDS011;39007;53.090;6.074;2022-10-17T15:51:35;9.77;;;3.50;;
53108;SDS011;39007;53.090;6.074;2022-10-17T15:54:01;8.43;;;3.20;;
53108;SDS011;39007;53.090;6.074;2022-10-17T15:56:28;14.68;;;4.20;;
53108;SDS011;39007;53.090;6.074;2022-10-17T15:58:54;10.05;;;3.33;;
53108;SDS011;39007;53.090;6.074;2022-10-17T16:01:22;7.43;;;3.33;;
53108;SDS011;39007;53.090;6.074;2022-10-17T16:03:49;7.13;;;3.00;;
53108;SDS011;39007;53.090;6.074;2022-10-17T16:06:16;9.20;;;3.25;;
53108;SDS011;39007;53.090;6.074;2022-10-17T16:08:43;9.60;;;3.30;;
53108;SDS011;39007;53.090;6.074;2022-10-17T16:11:16;8.15;;;3.85;;
53108;SDS011;39007;53.090;6.074;2022-10-17T16:13:45;7.63;;;3.35;;
53108;SDS011;39007;53.090;6.074;2022-10-17T16:16:13;7.35;;;3.13;;
53108;SDS011;39007;53.090;6.074;2022-10-17T16:18:39;7.95;;;3.42;;
53108;SDS011;39007;53.090;6.074;2022-10-17T16:21:05;8.93;;;3.53;;
53108;SDS011;39007;53.090;6.074;2022-10-17T16:23:31;11.52;;;4.00;;
53108;SDS011;39007;53.090;6.074;2022-10-17T16:25:57;7.45;;;3.60;;
53108;SDS011;39007;53.090;6.074;2022-10-17T16:28:23;9.15;;;3.88;;
53108;SDS011;39007;53.090;6.074;2022-10-17T16:30:49;7.90;;;3.80;;
53108;SDS011;39007;53.090;6.074;2022-10-17T16:33:15;9.70;;;4.18;;
53108;SDS011;39007;53.090;6.074;2022-10-17T16:35:42;8.20;;;3.83;;
53108;SDS011;39007;53.090;6.074;2022-10-17T16:38:09;7.93;;;3.80;;
53108;SDS011;39007;53.090;6.074;2022-10-17T16:40:36;9.88;;;3.90;;
53108;SDS011;39007;53.090;6.074;2022-10-17T16:43:04;9.88;;;4.32;;
53108;SDS011;39007;53.090;6.074;2022-10-17T16:45:30;9.93;;;4.10;;
53108;SDS011;39007;53.090;6.074;2022-10-17T16:47:56;10.63;;;3.97;;
53108;SDS011;39007;53.090;6.074;2022-10-17T16:50:22;8.18;;;4.40;;